Time;durP1;ratioP1;P1;durP2;ratioP2;P2;SDS_P1;SDS_P2;PMS_P1;PMS_P2;Temp;Humidity;BMP_temperature;BMP_pressure;BME280_temperature;BME280_humidity;BME280_pressure;Samples;Min_cycle;Max_cycle;Signal;HPM_P1;HPM_P2
2022/06/20 00:01:36;;;;;;;6.43;2.20;;;13.80;99.90;;;;;;5008630;28;20319;-75
2022/06/20 00:04:02;;;;;;;6.40;1.40;;;13.80;99.90;;;;;;5009385;28;20285;-73
2022/06/20 00:06:28;;;;;;;7.00;1.85;;;13.80;99.90;;;;;;5027843;28;20037;-75
2022/06/20 00:08:53;;;;;;;5.68;1.80;;;13.80;99.90;;;;;;5021687;28;20106;-75
2022/06/20 00:11:36;;;;;;;8.18;2.42;;;13.80;99.90;;;;;;4981372;28;20509;-75
2022/06/20 00:14:02;;;;;;;7.53;2.10;;;13.70;99.90;;;;;;5014593;28;20748;-73
2022/06/20 00:16:32;;;;;;;7.53;1.73;;;13.70;99.90;;;;;;5001746;28;20049;-75
2022/06/20 00:18:58;;;;;;;8.05;2.15;;;13.60;99.90;;;;;;5015960;28;20060;-74
2022/06/20 00:21:23;;;;;;;4.20;1.42;;;13.60;99.90;;;;;;5005443;28;20076;-74
2022/06/20 00:23:49;;;;;;;6.57;1.63;;;13.60;99.90;;;;;;5010461;28;20500;-75
2022/06/20 00:26:16;;;;;;;8.57;1.65;;;13.60;99.90;;;;;;4999730;28;20100;-75
2022/06/20 00:28:43;;;;;;;6.57;1.80;;;13.50;99.90;;;;;;5015085;28;20636;-75
2022/06/20 00:31:09;;;;;;;4.95;1.40;;;13.50;99.90;;;;;;4998269;28;20139;-74
2022/06/20 00:33:35;;;;;;;7.60;1.88;;;13.50;99.90;;;;;;4998698;28;20048;-74
2022/06/20 00:36:01;;;;;;;7.65;1.67;;;13.50;99.90;;;;;;4993731;28;20068;-72
2022/06/20 00:38:26;;;;;;;5.70;1.73;;;13.50;99.90;;;;;;5025639;28;20041;-73
2022/06/20 00:41:09;;;;;;;10.05;2.40;;;13.40;99.90;;;;;;5010145;28;20042;-73
2022/06/20 00:43:48;;;;;;;8.07;1.55;;;13.40;99.90;;;;;;5023582;28;20041;-74
2022/06/20 00:46:38;;;;;;;5.57;1.50;;;13.40;99.90;;;;;;5017604;28;20053;-73
2022/06/20 00:49:11;;;;;;;7.47;1.77;;;13.40;99.90;;;;;;5007338;28;20069;-73
2022/06/20 00:51:43;;;;;;;5.75;1.83;;;13.40;99.90;;;;;;5001837;28;20136;-73
2022/06/20 00:54:15;;;;;;;6.00;1.83;;;13.30;99.90;;;;;;5023969;28;20474;-73
2022/06/20 00:56:50;;;;;;;5.85;1.80;;;13.40;99.90;;;;;;5002285;28;20050;-73
2022/06/20 00:59:22;;;;;;;7.90;1.60;;;13.40;99.90;;;;;;5023465;28;20811;-75
2022/06/20 01:01:49;;;;;;;7.10;1.85;;;13.30;99.90;;;;;;5001876;28;20049;-75
2022/06/20 01:04:35;;;;;;;7.63;1.65;;;13.30;99.90;;;;;;5003438;28;20505;-75
2022/06/20 01:07:06;;;;;;;5.57;1.83;;;13.30;99.90;;;;;;5006391;28;20049;-75
2022/06/20 01:09:37;;;;;;;9.85;2.30;;;13.30;99.90;;;;;;5002980;28;20497;-75
2022/06/20 01:12:03;;;;;;;8.70;1.90;;;13.30;99.90;;;;;;5025740;28;20188;-74
2022/06/20 01:14:35;;;;;;;6.30;1.55;;;13.30;99.90;;;;;;5023562;28;20115;-74
2022/06/20 01:17:08;;;;;;;6.82;1.73;;;13.30;99.90;;;;;;5008222;28;20069;-72
2022/06/20 01:19:44;;;;;;;7.20;1.90;;;13.20;99.90;;;;;;5018725;28;20497;-74
2022/06/20 01:22:41;;;;;;;7.65;2.13;;;13.20;99.90;;;;;;5022826;28;20173;-73
2022/06/20 01:25:27;;;;;;;5.22;1.80;;;13.20;99.90;;;;;;5008737;28;20046;-72
2022/06/20 01:27:53;;;;;;;7.72;2.78;;;13.10;99.90;;;;;;5001123;28;20080;-73
2022/06/20 01:30:21;;;;;;;6.65;1.63;;;13.10;99.90;;;;;;5022524;28;20080;-73
2022/06/20 01:32:47;;;;;;;5.13;1.92;;;13.10;99.90;;;;;;5009571;28;20065;-74
2022/06/20 01:37:23;;;;;;;9.02;2.00;;;13.00;99.90;;;;;;5017772;28;20120;-73
2022/06/20 01:38:04;;;;;;;6.63;1.48;;;13.00;99.90;;;;;;5019286;28;20057;-73
2022/06/20 01:40:30;;;;;;;5.75;1.70;;;12.90;99.90;;;;;;5001852;28;20061;-74
2022/06/20 01:42:56;;;;;;;3.90;1.70;;;12.90;99.90;;;;;;5004785;28;20129;-74
2022/06/20 01:48:11;;;;;;;8.18;2.17;;;12.80;99.90;;;;;;5019088;28;20077;-74
2022/06/20 01:50:38;;;;;;;7.80;1.90;;;12.80;99.90;;;;;;5020807;28;20123;-75
2022/06/20 01:53:08;;;;;;;11.63;2.50;;;12.70;99.90;;;;;;5009744;28;20049;-73
2022/06/20 01:55:35;;;;;;;9.80;2.63;;;12.70;99.90;;;;;;5020320;28;20041;-74
2022/06/20 01:58:11;;;;;;;8.25;2.10;;;12.70;99.90;;;;;;5004690;28;20115;-72
2022/06/20 02:00:38;;;;;;;5.45;2.03;;;12.60;99.90;;;;;;5004823;28;20055;-74
2022/06/20 02:03:08;;;;;;;7.45;2.30;;;12.60;99.90;;;;;;5004280;28;20494;-73
2022/06/20 02:05:34;;;;;;;7.53;1.92;;;12.50;99.90;;;;;;5008881;28;20050;-74
2022/06/20 02:08:04;;;;;;;11.50;2.50;;;12.50;99.90;;;;;;5024080;28;20044;-74
2022/06/20 02:10:51;;;;;;;8.63;2.00;;;12.50;99.90;;;;;;5005505;28;20543;-75
2022/06/20 02:13:19;;;;;;;8.95;2.25;;;12.50;99.90;;;;;;5003331;28;20447;-74
2022/06/20 02:15:49;;;;;;;6.40;2.47;;;12.40;99.90;;;;;;5021163;28;20088;-74
2022/06/20 02:18:17;;;;;;;8.43;2.70;;;12.40;99.90;;;;;;5000226;28;20046;-73
2022/06/20 02:20:47;;;;;;;6.03;2.03;;;12.40;99.90;;;;;;5027891;28;20053;-74
2022/06/20 02:23:20;;;;;;;16.77;3.10;;;12.40;99.90;;;;;;5020893;28;20528;-74
2022/06/20 02:25:48;;;;;;;8.27;2.63;;;12.40;99.90;;;;;;5027067;28;20420;-75
2022/06/20 02:28:41;;;;;;;8.10;2.63;;;12.50;99.90;;;;;;5026047;28;20033;-74
2022/06/20 02:31:08;;;;;;;6.63;2.30;;;12.50;99.90;;;;;;5006390;28;20081;-73
2022/06/20 02:33:34;;;;;;;9.05;2.72;;;12.50;99.90;;;;;;5027589;28;20578;-73
2022/06/20 02:36:02;;;;;;;7.00;2.75;;;12.50;99.90;;;;;;5030509;28;20057;-73
2022/06/20 02:38:28;;;;;;;9.23;2.17;;;12.50;99.90;;;;;;5011602;28;20497;-74
2022/06/20 02:40:56;;;;;;;9.35;2.70;;;12.50;99.90;;;;;;5010723;28;20172;-73
2022/06/20 02:43:31;;;;;;;6.22;2.38;;;12.50;99.90;;;;;;5004070;28;20045;-74
2022/06/20 02:45:58;;;;;;;7.47;2.35;;;12.50;99.90;;;;;;5010058;28;20083;-74
2022/06/20 02:48:27;;;;;;;8.00;2.60;;;12.50;99.90;;;;;;5031686;28;20505;-74
2022/06/20 02:50:59;;;;;;;9.80;2.50;;;12.40;99.90;;;;;;5014358;28;20100;-75
2022/06/20 02:53:36;;;;;;;7.10;2.20;;;12.40;99.90;;;;;;5005278;28;20051;-74
2022/06/20 02:56:04;;;;;;;7.85;2.10;;;12.30;99.90;;;;;;5011531;28;20511;-73
2022/06/20 02:58:32;;;;;;;6.43;2.28;;;12.30;99.90;;;;;;5026072;28;20044;-73
2022/06/20 03:01:20;;;;;;;10.85;2.50;;;12.30;99.90;;;;;;5026802;28;20116;-74
2022/06/20 03:03:48;;;;;;;7.85;2.50;;;12.20;99.90;;;;;;5001335;28;20051;-73
2022/06/20 03:06:25;;;;;;;7.35;2.33;;;12.10;99.90;;;;;;5022937;28;20180;-74
2022/06/20 03:08:53;;;;;;;8.60;2.50;;;12.10;99.90;;;;;;5016450;28;20049;-74
2022/06/20 03:11:19;;;;;;;10.95;3.22;;;12.00;99.90;;;;;;5030478;28;20136;-73
2022/06/20 03:13:46;;;;;;;10.20;3.00;;;12.00;99.90;;;;;;5022771;28;20054;-74
2022/06/20 03:16:14;;;;;;;9.45;2.90;;;12.00;99.90;;;;;;5013880;28;20099;-73
2022/06/20 03:18:49;;;;;;;9.05;2.95;;;12.00;99.90;;;;;;5019764;28;20567;-73
2022/06/20 03:21:19;;;;;;;6.53;2.90;;;11.90;99.90;;;;;;5024945;28;20472;-72
2022/06/20 03:23:44;;;;;;;7.30;3.47;;;12.00;99.90;;;;;;5018415;28;20569;-73
2022/06/20 03:26:17;;;;;;;10.05;3.25;;;12.00;99.90;;;;;;5011052;28;20120;-73
2022/06/20 03:28:43;;;;;;;16.77;3.13;;;11.90;99.90;;;;;;5007471;28;20049;-74
2022/06/20 03:31:10;;;;;;;8.70;3.15;;;11.90;99.90;;;;;;5036225;28;20475;-72
2022/06/20 03:33:36;;;;;;;10.32;4.07;;;11.90;99.90;;;;;;5010334;28;20076;-74
2022/06/20 03:36:13;;;;;;;12.32;3.40;;;11.90;99.90;;;;;;5008247;28;20486;-73
2022/06/20 03:38:41;;;;;;;10.02;3.60;;;11.80;99.90;;;;;;5025256;28;20159;-73
2022/06/20 03:41:08;;;;;;;7.57;3.00;;;11.80;99.90;;;;;;5008887;28;20477;-73
2022/06/20 03:43:36;;;;;;;12.77;2.85;;;11.80;99.90;;;;;;5011577;28;20045;-73
2022/06/20 03:46:16;;;;;;;11.13;3.08;;;11.70;99.90;;;;;;5026588;28;20496;-72
2022/06/20 03:48:54;;;;;;;12.65;3.33;;;11.70;99.90;;;;;;5001855;28;20046;-73
2022/06/20 03:51:21;;;;;;;10.32;3.53;;;11.60;99.90;;;;;;5027993;28;20041;-74
2022/06/20 03:53:52;;;;;;;14.63;3.63;;;11.60;99.90;;;;;;5013023;28;20053;-73
2022/06/20 03:56:25;;;;;;;12.75;3.50;;;11.70;99.90;;;;;;5019885;28;20100;-73
2022/06/20 03:59:02;;;;;;;9.55;3.92;;;11.70;99.90;;;;;;5013175;28;20046;-73
2022/06/20 04:01:37;;;;;;;10.57;3.55;;;11.70;99.90;;;;;;5030461;28;20454;-73
2022/06/20 04:04:05;;;;;;;11.57;4.22;;;11.70;99.90;;;;;;5028675;28;20041;-72
2022/06/20 04:07:00;;;;;;;11.52;3.72;;;11.70;99.90;;;;;;5017672;28;20076;-73
2022/06/20 04:12:40;;;;;;;11.93;3.70;;;12.10;99.90;;;;;;5025746;28;20532;-72
2022/06/20 04:15:32;;;;;;;9.73;4.10;;;12.30;99.90;;;;;;5018365;28;20049;-73
2022/06/20 04:18:27;;;;;;;9.77;3.92;;;12.80;99.90;;;;;;5001243;28;20044;-74
2022/06/20 04:21:11;;;;;;;11.63;4.65;;;13.50;99.90;;;;;;5005566;28;20104;-73
2022/06/20 04:23:48;;;;;;;10.43;4.13;;;14.20;99.90;;;;;;5027200;28;20041;-73
2022/06/20 04:26:23;;;;;;;8.27;3.90;;;14.50;99.90;;;;;;5027316;28;20041;-73
2022/06/20 04:29:15;;;;;;;10.23;3.70;;;14.70;99.90;;;;;;5009620;28;20037;-74
2022/06/20 04:31:59;;;;;;;13.13;4.55;;;14.90;99.90;;;;;;5007893;28;20168;-73
2022/06/20 04:34:30;;;;;;;7.78;3.90;;;15.10;99.90;;;;;;5040374;28;20444;-73
2022/06/20 04:37:02;;;;;;;11.50;4.15;;;15.10;99.90;;;;;;5023219;28;20464;-73
2022/06/20 04:39:51;;;;;;;10.87;4.23;;;14.90;99.90;;;;;;5024961;28;20489;-74
2022/06/20 04:42:42;;;;;;;13.23;4.00;;;14.60;99.90;;;;;;5001068;28;20049;-72
2022/06/20 04:45:12;;;;;;;11.63;3.70;;;14.20;99.90;;;;;;5004654;28;20049;-72
2022/06/20 04:47:55;;;;;;;13.00;4.10;;;14.00;99.90;;;;;;5005767;28;20045;-74
2022/06/20 04:50:24;;;;;;;14.27;4.05;;;13.80;99.90;;;;;;5006168;28;20045;-72
2022/06/20 04:52:52;;;;;;;12.32;4.95;;;13.70;99.90;;;;;;5020184;28;20457;-73
2022/06/20 04:55:24;;;;;;;9.07;4.25;;;13.60;99.90;;;;;;5001619;28;20037;-79
2022/06/20 04:57:56;;;;;;;10.85;4.55;;;13.60;99.90;;;;;;5018145;28;20598;-75
2022/06/20 05:00:28;;;;;;;7.32;3.80;;;13.60;99.90;;;;;;5029425;28;20076;-75
2022/06/20 05:02:57;;;;;;;11.57;3.93;;;13.70;99.90;;;;;;5029695;28;20033;-75
2022/06/20 05:05:27;;;;;;;13.10;4.40;;;13.70;99.90;;;;;;5026581;28;20528;-74
2022/06/20 05:07:53;;;;;;;19.67;5.72;;;13.80;99.90;;;;;;5006984;28;20048;-74
2022/06/20 05:10:21;;;;;;;16.65;4.90;;;13.80;99.90;;;;;;5008332;28;20087;-74
2022/06/20 05:12:56;;;;;;;12.77;5.00;;;13.90;99.90;;;;;;5022986;28;20289;-75
2022/06/20 05:15:30;;;;;;;14.10;4.85;;;14.00;99.90;;;;;;5011686;28;20493;-75
2022/06/20 05:17:59;;;;;;;12.20;4.53;;;14.00;99.90;;;;;;5009789;28;20050;-76
2022/06/20 05:20:30;;;;;;;13.55;4.50;;;14.10;99.90;;;;;;5031276;28;20065;-78
2022/06/20 05:23:03;;;;;;;9.23;4.18;;;14.30;99.90;;;;;;5011009;28;22636;-76
2022/06/20 05:25:32;;;;;;;15.02;4.53;;;14.30;99.90;;;;;;5009577;28;20064;-76
2022/06/20 05:28:03;;;;;;;13.98;3.63;;;14.50;99.90;;;;;;5030072;28;20052;-76
2022/06/20 05:30:33;;;;;;;15.55;3.85;;;14.50;99.90;;;;;;5030983;28;20037;-78
2022/06/20 05:33:22;;;;;;;11.77;3.60;;;14.70;99.90;;;;;;5031616;28;20393;-77
2022/06/20 05:35:54;;;;;;;12.35;3.58;;;14.80;99.90;;;;;;5007982;28;20041;-77
2022/06/20 05:38:26;;;;;;;13.88;3.80;;;14.90;99.90;;;;;;5012702;28;20037;-74
2022/06/20 05:40:57;;;;;;;10.02;3.35;;;15.00;99.90;;;;;;5007196;28;20140;-76
2022/06/20 05:43:23;;;;;;;12.55;4.90;;;15.20;99.90;;;;;;5005432;28;20045;-75
2022/06/20 05:45:52;;;;;;;12.75;4.00;;;15.20;99.90;;;;;;5027387;28;20052;-74
2022/06/20 05:48:22;;;;;;;10.82;3.25;;;15.30;99.90;;;;;;5010742;28;20140;-73
2022/06/20 05:50:53;;;;;;;9.70;3.67;;;15.30;99.90;;;;;;5006465;28;20085;-73
2022/06/20 05:53:33;;;;;;;12.48;3.45;;;15.40;99.90;;;;;;5013791;28;20033;-72
2022/06/20 05:56:03;;;;;;;15.75;3.78;;;15.50;99.90;;;;;;5038267;28;20095;-75
2022/06/20 05:58:33;;;;;;;9.27;3.15;;;15.50;99.90;;;;;;5012050;28;20138;-74
2022/06/20 06:01:10;;;;;;;12.25;3.67;;;15.50;99.90;;;;;;5032143;28;20052;-76
2022/06/20 06:03:44;;;;;;;9.63;3.15;;;15.50;99.90;;;;;;5018224;28;20053;-78
2022/06/20 06:06:18;;;;;;;9.45;3.28;;;15.60;99.90;;;;;;5010360;28;20092;-76
2022/06/20 06:08:49;;;;;;;10.77;3.75;;;15.60;99.90;;;;;;5032876;28;20107;-77
2022/06/20 06:11:37;;;;;;;8.48;3.72;;;15.70;99.90;;;;;;5012299;28;20092;-77
2022/06/20 06:14:17;;;;;;;12.95;3.30;;;15.70;99.90;;;;;;5013645;28;20085;-78
2022/06/20 06:17:00;;;;;;;10.73;3.42;;;15.80;99.90;;;;;;5028079;28;20124;-78
2022/06/20 06:19:52;;;;;;;13.73;3.70;;;15.70;99.90;;;;;;5030270;28;20045;-78
2022/06/20 06:22:23;;;;;;;13.43;4.05;;;15.60;99.90;;;;;;5008466;28;20386;-78
2022/06/20 06:24:55;;;;;;;15.10;3.60;;;15.60;99.90;;;;;;5010864;28;20046;-77
2022/06/20 06:27:32;;;;;;;14.23;3.88;;;15.60;99.90;;;;;;5005059;28;20139;-79
2022/06/20 06:30:02;;;;;;;10.50;4.03;;;15.60;99.90;;;;;;5020221;28;20100;-77
2022/06/20 06:32:35;;;;;;;10.15;3.30;;;15.60;99.90;;;;;;5011040;28;20115;-78
2022/06/20 06:35:13;;;;;;;11.25;3.50;;;15.50;99.90;;;;;;5008631;28;20396;-74
2022/06/20 06:38:00;;;;;;;11.93;3.25;;;15.50;99.90;;;;;;5021980;28;20053;-77
2022/06/20 06:40:33;;;;;;;11.48;3.00;;;15.50;99.90;;;;;;5001952;28;20840;-76
2022/06/20 06:43:00;;;;;;;9.23;2.80;;;15.70;99.90;;;;;;5024467;28;20044;-75
2022/06/20 06:45:31;;;;;;;13.57;3.25;;;15.70;99.90;;;;;;5021077;28;20057;-76
2022/06/20 06:48:04;;;;;;;11.85;3.58;;;15.70;99.90;;;;;;5025200;28;20049;-76
2022/06/20 06:51:02;;;;;;;7.47;2.57;;;15.80;99.90;;;;;;5000962;28;20531;-75
2022/06/20 06:53:37;;;;;;;17.30;3.55;;;16.00;99.90;;;;;;5003520;28;20099;-76
2022/06/20 06:56:28;;;;;;;12.73;3.25;;;16.10;99.90;;;;;;4998736;28;20053;-75
2022/06/20 06:59:03;;;;;;;8.38;2.10;;;16.10;99.90;;;;;;5024172;28;20045;-76
2022/06/20 07:01:38;;;;;;;7.90;2.33;;;16.30;99.90;;;;;;5018752;28;20050;-76
2022/06/20 07:04:16;;;;;;;10.07;2.65;;;16.50;99.90;;;;;;5022956;28;20033;-75
2022/06/20 07:06:45;;;;;;;10.55;2.47;;;16.70;99.90;;;;;;5012050;28;20133;-76
2022/06/20 07:09:25;;;;;;;7.15;2.20;;;16.80;99.90;;;;;;4999504;28;20155;-75
2022/06/20 07:12:11;;;;;;;7.65;2.05;;;16.90;99.90;;;;;;5021779;28;20116;-77
2022/06/20 07:14:42;;;;;;;8.63;2.65;;;17.00;99.90;;;;;;5022901;28;20038;-78
2022/06/20 07:17:24;;;;;;;8.45;1.92;;;17.20;99.90;;;;;;5015065;28;20106;-77
2022/06/20 07:19:51;;;;;;;8.52;2.40;;;17.10;99.90;;;;;;4999898;28;20050;-77
2022/06/20 07:22:23;;;;;;;;;;;17.20;99.90;;;;;;4988528;28;20053;-77
2022/06/20 07:24:51;;;;;;;6.20;2.35;;;17.10;99.90;;;;;;4992024;28;19917;-77
2022/06/20 07:27:23;;;;;;;10.05;2.97;;;17.10;99.90;;;;;;4994274;28;20037;-77
2022/06/20 07:30:13;;;;;;;12.00;3.08;;;17.20;99.90;;;;;;4989803;28;20406;-75
2022/06/20 07:32:46;;;;;;;5.75;1.80;;;17.40;99.90;;;;;;5004250;28;20145;-76
2022/06/20 07:35:34;;;;;;;9.63;2.00;;;17.50;99.90;;;;;;5007845;28;20065;-76
2022/06/20 07:38:03;;;;;;;8.45;2.72;;;17.60;99.90;;;;;;5003413;28;20044;-76
2022/06/20 07:40:45;;;;;;;8.10;2.05;;;17.60;99.90;;;;;;4989870;28;20052;-75
2022/06/20 07:43:36;;;;;;;7.22;2.50;;;17.70;99.90;;;;;;4988982;28;20045;-76
2022/06/20 07:46:21;;;;;;;7.93;2.20;;;17.80;99.90;;;;;;4980970;28;20042;-73
2022/06/20 07:48:52;;;;;;;8.30;2.53;;;17.80;99.90;;;;;;4982318;28;20096;-75
2022/06/20 07:51:33;;;;;;;7.20;2.15;;;17.90;99.90;;;;;;5003646;28;20045;-76
2022/06/20 09:46:10;;;;;;;5.57;2.25;;;19.30;99.90;;;;;;5084100;27;20430;-73
2022/06/20 09:49:13;;;;;;;10.13;2.33;;;19.30;99.90;;;;;;5016050;28;20076;-73
2022/06/20 09:51:59;;;;;;;9.87;2.50;;;19.50;99.90;;;;;;5049265;28;20134;-73
2022/06/20 09:54:42;;;;;;;6.28;2.10;;;19.90;99.90;;;;;;5052251;28;20077;-73
2022/06/20 10:00:04;;;;;;;7.75;2.35;;;20.30;99.90;;;;;;5054658;28;20049;-74
2022/06/20 10:02:52;;;;;;;;;;;20.10;99.90;;;;;;5059767;28;20056;-76
2022/06/20 10:05:42;;;;;;;5.72;2.28;;;20.20;99.90;;;;;;5058316;28;19921;-76
2022/06/20 10:08:46;;;;;;;8.82;2.35;;;20.00;99.90;;;;;;5046969;28;20060;-76
2022/06/20 10:11:29;;;;;;;12.90;2.47;;;19.60;99.90;;;;;;5024817;28;20099;-75
2022/06/20 10:14:07;;;;;;;8.88;2.83;;;19.30;99.90;;;;;;5060951;28;20063;-75
2022/06/20 10:16:51;;;;;;;9.30;2.55;;;19.20;99.90;;;;;;5058742;28;20045;-77
2022/06/20 10:19:49;;;;;;;5.25;2.13;;;19.40;99.90;;;;;;5058281;28;20041;-76
2022/06/20 10:22:38;;;;;;;8.10;2.75;;;19.30;99.90;;;;;;5042369;28;20106;-77
2022/06/20 10:25:33;;;;;;;10.48;2.90;;;19.20;99.90;;;;;;5059238;28;20033;-74
2022/06/20 10:28:07;;;;;;;13.05;3.42;;;19.10;99.90;;;;;;4984167;28;20035;-75
2022/06/20 10:30:49;;;;;;;10.95;3.00;;;18.90;99.90;;;;;;5058948;28;20056;-76
2022/06/20 10:33:30;;;;;;;13.07;2.42;;;18.80;99.90;;;;;;5058836;28;20036;-76
2022/06/20 10:36:21;;;;;;;7.88;2.00;;;18.70;99.90;;;;;;5043789;28;20041;-76
2022/06/20 10:39:05;;;;;;;5.35;2.60;;;18.80;99.90;;;;;;5057556;28;20044;-76
2022/06/20 10:42:02;;;;;;;7.55;2.47;;;19.20;99.90;;;;;;5045079;28;20052;-75
2022/06/20 10:44:34;;;;;;;9.27;2.63;;;19.40;99.90;;;;;;5044310;28;20060;-78
2022/06/20 10:47:18;;;;;;;6.97;2.08;;;19.60;99.90;;;;;;5043344;28;20079;-75
2022/06/20 10:50:04;;;;;;;5.32;2.00;;;19.80;99.90;;;;;;5027997;28;20049;-76
2022/06/20 10:52:44;;;;;;;11.45;2.15;;;19.90;99.90;;;;;;5026387;28;20064;-76
2022/06/20 10:55:10;;;;;;;9.73;2.30;;;20.10;99.90;;;;;;5027947;28;20041;-77
2022/06/20 10:57:55;;;;;;;3.90;1.75;;;20.10;99.90;;;;;;5045541;28;20057;-78
2022/06/20 11:00:26;;;;;;;5.45;1.95;;;20.50;99.90;;;;;;5044364;28;20059;-77
2022/06/20 11:03:17;;;;;;;5.57;1.90;;;20.60;99.90;;;;;;5044049;28;20199;-77
2022/06/20 11:05:54;;;;;;;6.97;2.05;;;20.50;99.90;;;;;;5022031;28;20778;-77
2022/06/20 11:08:38;;;;;;;5.20;2.13;;;20.00;99.90;;;;;;5045471;28;20044;-77
2022/06/20 11:11:26;;;;;;;8.02;2.53;;;19.60;99.90;;;;;;5046419;28;20037;-74
2022/06/20 11:13:55;;;;;;;7.10;2.13;;;19.30;99.90;;;;;;5043807;28;22021;-76
2022/06/20 11:16:55;;;;;;;8.23;2.40;;;19.10;99.90;;;;;;5037798;28;20049;-81
2022/06/20 11:19:57;;;;;;;8.13;2.53;;;19.00;99.90;;;;;;5041727;28;20053;-76
2022/06/20 11:22:38;;;;;;;11.20;2.95;;;18.90;99.90;;;;;;5029885;28;20099;-76
2022/06/20 11:25:42;;;;;;;6.90;2.00;;;18.90;99.90;;;;;;5043724;28;20044;-74
2022/06/20 11:28:13;;;;;;;6.00;2.00;;;18.90;99.90;;;;;;5026564;28;20033;-76
2022/06/20 11:30:51;;;;;;;6.18;2.00;;;18.80;99.90;;;;;;5041431;28;20115;-73
2022/06/20 11:33:22;;;;;;;7.93;2.08;;;19.00;99.90;;;;;;5040416;28;20037;-71
2022/06/20 11:35:51;;;;;;;5.15;2.67;;;19.10;99.90;;;;;;5039545;28;20696;-70
2022/06/20 11:38:44;;;;;;;6.97;2.40;;;19.10;99.90;;;;;;5039753;28;20053;-74
2022/06/20 11:41:16;;;;;;;6.32;1.73;;;19.00;99.90;;;;;;5042313;28;20544;-77
2022/06/20 11:44:09;;;;;;;5.78;1.95;;;18.80;99.90;;;;;;5047657;28;20099;-75
2022/06/20 11:46:49;;;;;;;5.55;1.92;;;18.70;99.90;;;;;;5039387;28;20548;-73
2022/06/20 11:49:36;;;;;;;11.90;3.33;;;18.80;99.90;;;;;;5038814;28;20059;-74
2022/06/20 11:52:23;;;;;;;4.97;2.00;;;18.80;99.90;;;;;;5036269;28;20041;-76
2022/06/20 11:55:16;;;;;;;7.20;1.70;;;18.80;99.90;;;;;;5044851;28;20064;-75
2022/06/20 11:57:53;;;;;;;10.70;2.63;;;18.90;99.90;;;;;;5042516;28;20072;-75
2022/06/20 12:00:33;;;;;;;5.55;2.17;;;18.90;99.90;;;;;;5044666;28;20048;-75
2022/06/20 12:03:27;;;;;;;5.65;2.20;;;18.80;99.90;;;;;;5040185;28;20041;-75
2022/06/20 12:06:13;;;;;;;8.35;1.60;;;18.90;99.90;;;;;;5036434;28;20045;-73
2022/06/20 12:08:44;;;;;;;6.30;2.00;;;19.20;99.90;;;;;;5048244;28;20804;-76
2022/06/20 12:11:38;;;;;;;7.22;1.85;;;19.40;99.90;;;;;;5040699;28;20040;-73
2022/06/20 12:14:15;;;;;;;5.63;1.90;;;19.70;99.90;;;;;;5039547;28;20047;-72
2022/06/20 12:16:44;;;;;;;5.32;1.70;;;19.80;99.90;;;;;;5021785;28;20120;-72
2022/06/20 12:25:19;;;;;;;8.18;1.90;;;19.90;99.90;;;;;;5039686;28;20064;-74
2022/06/20 12:27:46;;;;;;;7.60;2.08;;;19.90;99.90;;;;;;5021978;28;20049;-76
2022/06/20 12:30:14;;;;;;;9.18;2.28;;;20.00;99.90;;;;;;5022851;28;20065;-75
2022/06/20 12:32:45;;;;;;;7.28;2.53;;;20.10;99.90;;;;;;5041231;28;20102;-75
2022/06/20 12:35:22;;;;;;;6.43;2.30;;;20.00;99.90;;;;;;5036426;28;20045;-70
2022/06/20 12:37:57;;;;;;;6.50;1.92;;;19.60;99.90;;;;;;5039618;28;20036;-70
2022/06/20 12:40:36;;;;;;;5.90;2.47;;;19.30;99.90;;;;;;5038059;28;20054;-71
2022/06/20 12:43:19;;;;;;;9.13;2.10;;;19.00;99.90;;;;;;5036429;28;20095;-71
2022/06/20 12:46:25;;;;;;;5.78;1.95;;;18.80;99.90;;;;;;5040863;28;20053;-70
2022/06/20 12:49:08;;;;;;;7.53;2.05;;;18.70;99.90;;;;;;5035831;28;20056;-72
2022/06/20 12:52:07;;;;;;;5.18;2.08;;;19.00;99.90;;;;;;5035222;28;20090;-70
2022/06/20 12:54:57;;;;;;;6.03;2.47;;;19.00;99.90;;;;;;5037626;28;20039;-73
2022/06/20 12:57:54;;;;;;;5.53;1.80;;;19.10;99.90;;;;;;5038991;28;20068;-68
2022/06/20 13:00:28;;;;;;;7.10;1.90;;;19.30;99.90;;;;;;5037812;28;20052;-69
2022/06/20 13:03:12;;;;;;;6.68;2.28;;;19.50;99.90;;;;;;5041155;28;20064;-69
2022/06/20 13:06:03;;;;;;;7.25;2.10;;;19.50;99.90;;;;;;5017942;28;20501;-68
2022/06/20 13:08:55;;;;;;;6.60;2.13;;;19.50;99.90;;;;;;5031682;28;20051;-69
2022/06/20 13:11:25;;;;;;;7.53;2.00;;;19.50;99.90;;;;;;5034776;28;22388;-68
2022/06/20 13:14:26;;;;;;;5.90;1.98;;;19.70;99.90;;;;;;5037562;28;20560;-69
2022/06/20 13:17:20;;;;;;;5.35;1.70;;;19.90;99.90;;;;;;5029038;28;20048;-69
2022/06/20 13:20:04;;;;;;;4.45;1.85;;;20.10;99.90;;;;;;5030572;28;20524;-69
2022/06/20 13:23:09;;;;;;;7.40;1.85;;;20.20;99.90;;;;;;5034278;28;20140;-68
2022/06/20 13:25:49;;;;;;;9.65;1.90;;;20.00;99.90;;;;;;5035696;28;20128;-69
2022/06/20 13:28:29;;;;;;;7.18;1.80;;;19.70;99.90;;;;;;5037167;28;20124;-69
2022/06/20 13:31:16;;;;;;;6.82;1.92;;;19.70;99.90;;;;;;5042431;28;20784;-69
2022/06/20 13:34:00;;;;;;;4.95;2.13;;;19.80;99.90;;;;;;5038665;28;20466;-69
2022/06/20 13:36:44;;;;;;;5.50;1.80;;;19.90;99.90;;;;;;5036541;28;20045;-69
2022/06/20 13:39:30;;;;;;;7.95;2.30;;;20.10;99.90;;;;;;5038483;28;20049;-69
2022/06/20 13:42:21;;;;;;;6.43;2.20;;;20.20;99.90;;;;;;5037920;28;20515;-69
2022/06/20 13:45:08;;;;;;;6.43;1.70;;;20.00;99.90;;;;;;5029511;28;20052;-68
2022/06/20 13:47:59;;;;;;;10.65;2.50;;;19.80;99.90;;;;;;5022442;28;20606;-68
2022/06/20 13:50:55;;;;;;;6.90;2.22;;;19.90;99.90;;;;;;5036210;28;20090;-70
2022/06/20 13:53:52;;;;;;;6.15;1.90;;;20.20;99.90;;;;;;5041623;28;20060;-69
2022/06/20 13:56:35;;;;;;;9.10;2.75;;;20.60;99.90;;;;;;5031865;28;20626;-70
2022/06/20 13:59:28;;;;;;;4.25;1.77;;;20.50;99.90;;;;;;5036462;28;20048;-70
2022/06/20 14:01:54;;;;;;;;;;;20.20;99.90;;;;;;5039922;28;20056;-72
2022/06/20 14:04:20;;;;;;;12.15;2.15;;;20.00;99.90;;;;;;5033347;28;19921;-70
2022/06/20 14:07:09;;;;;;;10.70;1.70;;;20.00;99.90;;;;;;5041313;28;20052;-70
2022/06/20 14:09:53;;;;;;;7.88;2.03;;;20.00;99.90;;;;;;5034106;28;20045;-69
2022/06/20 14:12:30;;;;;;;4.53;1.60;;;20.10;99.90;;;;;;5033413;28;20049;-69
2022/06/20 14:15:05;;;;;;;7.25;1.90;;;20.30;99.90;;;;;;5030801;28;21303;-70
2022/06/20 14:17:34;;;;;;;5.88;1.92;;;20.10;99.90;;;;;;5033387;28;20145;-71
2022/06/20 14:20:21;;;;;;;5.30;1.70;;;19.80;99.90;;;;;;5034489;28;20041;-72
2022/06/20 14:22:52;;;;;;;7.28;1.80;;;19.60;99.90;;;;;;5042268;28;20124;-70
2022/06/20 14:25:42;;;;;;;7.57;1.75;;;19.60;99.90;;;;;;5040092;28;20048;-71
2022/06/20 14:28:33;;;;;;;7.88;1.90;;;19.70;99.90;;;;;;5040775;28;20049;-71
2022/06/20 14:31:08;;;;;;;4.35;2.17;;;19.60;99.90;;;;;;5023545;28;20037;-70
2022/06/20 14:34:20;;;;;;;7.25;1.80;;;19.60;99.90;;;;;;5042928;28;20045;-70
2022/06/20 14:37:10;;;;;;;6.38;2.03;;;19.80;99.90;;;;;;5014984;28;20106;-72
2022/06/20 14:39:45;;;;;;;6.80;1.67;;;20.00;99.90;;;;;;5040142;28;20045;-71
2022/06/20 14:42:20;;;;;;;6.57;2.00;;;20.10;99.90;;;;;;5042111;28;20447;-72
2022/06/20 14:44:52;;;;;;;8.38;2.03;;;20.00;99.90;;;;;;5041776;28;20037;-72
2022/06/20 14:47:49;;;;;;;5.05;2.08;;;19.90;99.90;;;;;;5037054;28;20132;-71
2022/06/20 14:50:18;;;;;;;4.75;2.03;;;19.90;99.90;;;;;;5048457;28;20076;-71
2022/06/20 14:52:43;;;;;;;8.07;2.30;;;19.90;99.90;;;;;;5041507;28;20053;-72
2022/06/20 14:55:18;;;;;;;7.78;2.30;;;19.60;99.90;;;;;;5039609;28;20057;-72
2022/06/20 14:58:06;;;;;;;8.13;2.53;;;19.60;99.90;;;;;;5039617;28;20045;-73
2022/06/20 15:00:50;;;;;;;7.47;2.10;;;19.70;99.90;;;;;;5037060;28;20094;-73
2022/06/20 15:03:43;;;;;;;6.40;2.90;;;19.70;99.90;;;;;;5038140;28;20053;-73
2022/06/20 15:06:24;;;;;;;9.48;2.65;;;19.80;99.90;;;;;;5039057;28;20053;-73
2022/06/20 15:09:25;;;;;;;12.88;3.65;;;20.00;99.90;;;;;;5036829;28;20140;-72
2022/06/20 15:12:24;;;;;;;13.25;3.70;;;20.10;99.90;;;;;;5018618;28;20062;-72
2022/06/20 15:15:13;;;;;;;10.57;3.15;;;20.00;99.90;;;;;;5037575;28;20408;-71
2022/06/20 15:17:56;;;;;;;10.35;2.83;;;20.00;99.90;;;;;;5044081;28;20178;-71
2022/06/20 15:20:25;;;;;;;8.27;2.80;;;19.80;99.90;;;;;;5037052;28;20052;-71
2022/06/20 15:23:03;;;;;;;9.07;2.47;;;19.60;99.90;;;;;;5039653;28;20041;-70
2022/06/20 15:25:38;;;;;;;7.85;2.17;;;19.30;99.90;;;;;;5042829;28;20111;-72
2022/06/20 15:28:24;;;;;;;8.40;2.28;;;19.00;99.90;;;;;;5037277;28;20041;-70
2022/06/20 15:30:55;;;;;;;7.25;2.28;;;19.10;99.90;;;;;;5043759;28;20045;-71
2022/06/20 15:33:30;;;;;;;6.00;2.10;;;19.00;99.90;;;;;;5037837;28;20060;-74
2022/06/20 15:36:06;;;;;;;9.18;2.08;;;18.90;99.90;;;;;;5037467;28;20133;-73
2022/06/20 15:38:38;;;;;;;7.95;2.50;;;18.80;99.90;;;;;;5036907;28;20071;-74
2022/06/20 15:41:13;;;;;;;9.43;2.97;;;18.70;99.90;;;;;;5030158;28;20049;-74
2022/06/20 15:43:51;;;;;;;11.63;3.55;;;18.90;99.90;;;;;;5033764;28;20048;-75
2022/06/20 15:46:35;;;;;;;5.65;2.25;;;19.10;99.90;;;;;;5032314;28;20049;-71